createdAt,value
2023-05-14T00:01:41.621Z,10.32
2023-05-14T00:04:28.429Z,9.63
2023-05-14T00:07:15.271Z,10.13
2023-05-14T00:10:02.132Z,10.88
2023-05-14T00:12:51.382Z,9.95
2023-05-14T00:15:38.246Z,9.63
2023-05-14T00:18:25.110Z,9.82
2023-05-14T00:21:11.991Z,10.07
2023-05-14T00:23:58.885Z,10.20
2023-05-14T00:26:45.689Z,10.32
2023-05-14T00:29:32.486Z,10.82
2023-05-14T00:32:19.296Z,10.68
2023-05-14T00:35:06.496Z,10.80
2023-05-14T00:37:53.297Z,11.75
2023-05-14T00:40:40.313Z,10.02
2023-05-14T00:43:27.304Z,11.60
2023-05-14T00:46:14.814Z,12.40
2023-05-14T00:49:01.797Z,11.48
2023-05-14T00:51:48.916Z,12.50
2023-05-14T00:54:36.401Z,13.63
2023-05-14T00:57:23.289Z,12.20
2023-05-14T01:00:10.799Z,12.55
2023-05-14T01:02:58.139Z,13.18
2023-05-14T01:05:48.054Z,12.93
2023-05-14T01:08:41.008Z,12.60
2023-05-14T01:11:42.533Z,13.18
2023-05-14T01:14:29.347Z,13.25
2023-05-14T01:17:16.476Z,13.30
2023-05-14T01:20:03.748Z,13.13
2023-05-14T01:22:50.546Z,12.40
2023-05-14T01:25:37.502Z,11.57
2023-05-14T01:28:32.537Z,12.25
2023-05-14T01:31:22.528Z,12.07
2023-05-14T01:34:12.562Z,12.40
2023-05-14T01:37:01.820Z,12.18
2023-05-14T01:39:50.715Z,12.10
2023-05-14T01:42:38.407Z,12.70
2023-05-14T01:45:25.417Z,12.85
2023-05-14T01:48:12.517Z,12.32
2023-05-14T01:50:59.438Z,12.57
2023-05-14T01:53:46.239Z,13.13
2023-05-14T01:56:33.047Z,15.13
2023-05-14T01:59:19.895Z,13.93
2023-05-14T02:02:06.946Z,14.98
2023-05-14T02:04:53.816Z,14.98
2023-05-14T02:07:40.719Z,15.23
2023-05-14T02:10:28.947Z,15.35
2023-05-14T02:13:16.535Z,14.32
2023-05-14T02:16:03.838Z,15.13
2023-05-14T02:18:50.755Z,15.23
2023-05-14T02:21:37.513Z,14.65
2023-05-14T02:24:24.533Z,16.48
2023-05-14T02:27:11.336Z,14.35
2023-05-14T02:29:58.244Z,14.15
2023-05-14T02:32:45.141Z,14.18
2023-05-14T02:35:32.037Z,14.38
2023-05-14T02:38:20.267Z,17.15
2023-05-14T02:41:07.115Z,14.43
2023-05-14T02:43:54.414Z,14.45
2023-05-14T02:46:41.484Z,14.32
2023-05-14T02:49:28.299Z,13.93
2023-05-14T02:52:15.147Z,16.35
2023-05-14T02:55:02.569Z,16.08
2023-05-14T02:57:49.376Z,16.67
2023-05-14T03:00:36.223Z,16.08
2023-05-14T03:03:24.008Z,16.85
2023-05-14T03:06:11.318Z,16.67
2023-05-14T03:08:58.152Z,18.38
2023-05-14T03:11:45.135Z,19.52
2023-05-14T03:14:31.949Z,19.80
2023-05-14T03:17:18.787Z,20.02
2023-05-14T03:20:06.308Z,19.27
2023-05-14T03:22:53.335Z,19.27
2023-05-14T03:25:40.199Z,18.85
2023-05-14T03:28:26.960Z,17.50
2023-05-14T03:31:13.927Z,17.60
2023-05-14T03:34:00.795Z,16.83
2023-05-14T03:36:47.694Z,15.82
2023-05-14T03:39:34.678Z,15.45
2023-05-14T03:42:24.594Z,14.95
2023-05-14T03:45:11.622Z,15.65
2023-05-14T03:47:58.499Z,15.00
2023-05-14T03:50:46.519Z,16.33
2023-05-14T03:53:33.644Z,17.70
2023-05-14T03:56:20.421Z,16.15
2023-05-14T03:59:07.233Z,16.63
2023-05-14T04:01:54.089Z,18.05
2023-05-14T04:04:40.943Z,18.73
2023-05-14T04:07:27.773Z,17.05
2023-05-14T04:10:14.573Z,18.63
2023-05-14T04:13:01.413Z,18.73
2023-05-14T04:15:52.511Z,19.02
2023-05-14T04:18:39.397Z,18.35
2023-05-14T04:21:26.306Z,19.23
2023-05-14T04:24:13.066Z,18.45
2023-05-14T04:26:59.938Z,19.45
2023-05-14T04:29:47.153Z,19.35
2023-05-14T04:32:33.960Z,20.33
2023-05-14T04:35:23.354Z,20.67
2023-05-14T04:38:11.562Z,20.63
2023-05-14T04:40:58.389Z,20.13
2023-05-14T04:43:45.161Z,20.02
2023-05-14T04:46:32.044Z,21.05
2023-05-14T04:49:18.953Z,22.05
2023-05-14T04:52:06.750Z,20.17
2023-05-14T04:54:53.588Z,20.58
2023-05-14T04:57:40.349Z,19.98
2023-05-14T05:00:27.377Z,18.67
2023-05-14T05:03:14.368Z,19.88
2023-05-14T05:06:01.314Z,18.73
2023-05-14T05:08:48.084Z,16.92
2023-05-14T05:11:34.863Z,15.60
2023-05-14T05:14:21.663Z,16.20
2023-05-14T05:17:08.473Z,16.38
2023-05-14T05:19:55.249Z,15.07
2023-05-14T05:22:42.076Z,16.27
2023-05-14T05:25:28.855Z,16.13
2023-05-14T05:28:15.738Z,15.65
2023-05-14T05:31:02.588Z,15.40
2023-05-14T05:33:49.509Z,15.60
2023-05-14T05:36:36.280Z,14.40
2023-05-14T05:39:23.122Z,14.93
2023-05-14T05:42:10.146Z,15.77
2023-05-14T05:44:56.912Z,14.82
2023-05-14T05:47:43.766Z,14.15
2023-05-14T05:50:30.717Z,14.15
2023-05-14T05:53:17.492Z,14.55
2023-05-14T05:56:04.489Z,14.20
2023-05-14T05:58:51.321Z,14.52
2023-05-14T06:01:38.151Z,14.55
2023-05-14T06:04:25.001Z,12.90
2023-05-14T06:07:11.737Z,15.07
2023-05-14T06:09:58.502Z,13.77
2023-05-14T06:12:45.414Z,11.40
2023-05-14T06:15:32.212Z,12.15
2023-05-14T06:18:19.094Z,11.75
2023-05-14T06:21:06.017Z,11.60
2023-05-14T06:23:52.858Z,11.23
2023-05-14T06:26:39.614Z,11.43
2023-05-14T06:29:26.413Z,10.90
2023-05-14T06:32:13.274Z,12.10
2023-05-14T06:35:00.168Z,12.88
2023-05-14T06:37:46.989Z,12.73
2023-05-14T06:40:33.801Z,12.98
2023-05-14T06:43:20.667Z,11.95
2023-05-14T06:46:07.480Z,12.00
2023-05-14T06:48:54.326Z,10.70
2023-05-14T06:51:41.378Z,12.68
2023-05-14T06:54:28.150Z,11.85
2023-05-14T06:57:14.943Z,12.27
2023-05-14T07:00:03.668Z,12.38
2023-05-14T07:02:50.788Z,11.55
2023-05-14T07:05:37.648Z,12.07
2023-05-14T07:08:24.531Z,11.98
2023-05-14T07:11:11.849Z,11.65
2023-05-14T07:13:58.926Z,11.93
2023-05-14T07:16:45.816Z,13.60
2023-05-14T07:19:32.632Z,14.55
2023-05-14T07:22:19.436Z,14.07
2023-05-14T07:25:06.608Z,12.38
2023-05-14T07:27:53.401Z,12.05
2023-05-14T07:30:40.534Z,11.43
2023-05-14T07:33:27.304Z,11.85
2023-05-14T07:36:14.358Z,12.13
2023-05-14T07:39:01.192Z,12.05
2023-05-14T07:41:48.008Z,11.70
2023-05-14T07:44:34.777Z,10.95
2023-05-14T07:47:21.770Z,11.20
2023-05-14T07:50:09.173Z,11.35
2023-05-14T07:52:55.980Z,11.48
2023-05-14T07:55:42.772Z,10.85
2023-05-14T07:58:29.576Z,10.20
2023-05-14T08:01:16.385Z,10.02
2023-05-14T08:04:03.366Z,9.80
2023-05-14T08:06:50.309Z,10.00
2023-05-14T08:09:37.263Z,10.50
2023-05-14T08:12:24.082Z,9.32
2023-05-14T08:15:12.238Z,8.68
2023-05-14T08:17:59.091Z,9.80
2023-05-14T08:20:45.999Z,9.70
2023-05-14T08:23:32.805Z,10.30
2023-05-14T08:26:19.595Z,9.60
2023-05-14T08:29:07.169Z,9.75
2023-05-14T08:31:55.116Z,10.18
2023-05-14T08:34:43.923Z,10.80
2023-05-14T08:37:30.880Z,9.98
2023-05-14T08:40:18.074Z,10.48
2023-05-14T08:43:06.698Z,10.13
2023-05-14T08:45:58.473Z,10.10
2023-05-14T08:51:35.625Z,9.93
2023-05-14T08:54:23.162Z,10.40
2023-05-14T08:57:10.997Z,10.75
2023-05-14T08:59:58.288Z,10.43
2023-05-14T09:02:46.442Z,10.63
2023-05-14T09:05:33.585Z,10.10
2023-05-14T09:08:20.666Z,9.93
2023-05-14T09:11:07.430Z,10.20
2023-05-14T09:13:54.225Z,9.77
2023-05-14T09:16:44.619Z,9.88
2023-05-14T09:19:31.586Z,9.15
2023-05-14T09:22:19.001Z,8.95
2023-05-14T09:25:08.739Z,9.68
2023-05-14T09:27:58.676Z,8.90
2023-05-14T09:30:51.865Z,9.65
2023-05-14T09:33:38.662Z,10.00
2023-05-14T09:36:26.582Z,9.95
2023-05-14T09:39:13.362Z,9.82
2023-05-14T09:42:00.316Z,9.75
2023-05-14T09:44:47.243Z,9.80
2023-05-14T09:47:34.177Z,10.23
2023-05-14T09:50:21.342Z,10.15
2023-05-14T09:53:08.305Z,10.52
2023-05-14T09:55:55.104Z,10.63
2023-05-14T09:58:41.934Z,10.00
2023-05-14T10:01:30.227Z,10.45
2023-05-14T10:04:17.817Z,10.32
2023-05-14T10:07:04.883Z,10.18
2023-05-14T10:09:59.365Z,9.65
2023-05-14T10:12:57.489Z,9.63
2023-05-14T10:15:51.725Z,10.98
2023-05-14T10:18:45.904Z,9.90
2023-05-14T10:21:35.726Z,10.07
2023-05-14T10:24:23.328Z,10.55
2023-05-14T10:27:10.318Z,10.93
2023-05-14T10:29:57.530Z,9.80
2023-05-14T10:32:44.481Z,10.77
2023-05-14T10:35:50.183Z,11.45
2023-05-14T10:38:37.976Z,11.38
2023-05-14T10:41:24.882Z,10.88
2023-05-14T10:44:12.034Z,11.48
2023-05-14T10:46:59.228Z,10.55
2023-05-14T10:49:47.250Z,10.90
2023-05-14T10:52:34.080Z,10.27
2023-05-14T10:55:21.797Z,9.88
2023-05-14T10:58:12.837Z,11.93
2023-05-14T11:01:00.529Z,11.20
2023-05-14T11:03:47.377Z,11.15
2023-05-14T11:06:35.596Z,11.45
2023-05-14T11:09:23.902Z,11.30
2023-05-14T11:12:10.782Z,11.20
2023-05-14T11:14:59.082Z,10.35
2023-05-14T11:17:47.203Z,11.57
2023-05-14T11:20:35.813Z,10.68
2023-05-14T11:23:24.010Z,11.05
2023-05-14T11:26:11.303Z,12.00
2023-05-14T11:28:58.191Z,11.55
2023-05-14T11:31:45.020Z,9.73
2023-05-14T11:34:32.303Z,9.15
2023-05-14T11:37:19.656Z,9.90
2023-05-14T11:40:14.837Z,10.35
2023-05-14T11:43:01.775Z,10.32
2023-05-14T11:45:52.820Z,10.13
2023-05-14T11:48:39.670Z,10.63
2023-05-14T11:51:26.485Z,10.70
2023-05-14T11:54:14.218Z,10.63
2023-05-14T11:57:03.586Z,10.52
2023-05-14T11:59:55.990Z,11.77
2023-05-14T12:02:42.861Z,11.98
2023-05-14T12:05:29.820Z,12.27
2023-05-14T12:08:26.279Z,11.82
2023-05-14T12:11:13.090Z,11.80
2023-05-14T12:13:59.919Z,11.57
2023-05-14T12:16:47.637Z,12.35
2023-05-14T12:19:39.906Z,12.77
2023-05-14T12:22:29.366Z,14.38
2023-05-14T12:25:16.270Z,14.35
2023-05-14T12:28:14.156Z,14.60
2023-05-14T12:31:01.036Z,14.75
2023-05-14T12:33:47.831Z,15.85
2023-05-14T12:36:34.638Z,15.23
2023-05-14T12:39:21.476Z,16.42
2023-05-14T12:42:08.264Z,15.63
2023-05-14T12:44:55.064Z,16.25
2023-05-14T12:47:41.886Z,16.23
2023-05-14T12:50:29.379Z,15.02
2023-05-14T12:53:16.160Z,16.50
2023-05-14T12:56:03.023Z,15.90
2023-05-14T12:58:49.836Z,15.80
2023-05-14T13:01:36.674Z,17.27
2023-05-14T13:04:23.540Z,18.25
2023-05-14T13:07:10.554Z,17.13
2023-05-14T13:09:57.383Z,16.48
2023-05-14T13:12:44.302Z,16.75
2023-05-14T13:15:31.101Z,17.15
2023-05-14T13:18:18.067Z,17.10
2023-05-14T13:21:04.862Z,17.17
2023-05-14T13:23:51.678Z,16.40
2023-05-14T13:26:38.649Z,16.10
2023-05-14T13:29:25.466Z,15.88
2023-05-14T13:32:12.232Z,16.10
2023-05-14T13:34:59.004Z,16.15
2023-05-14T13:37:47.374Z,17.33
2023-05-14T13:40:34.138Z,16.90
2023-05-14T13:43:20.912Z,15.65
2023-05-14T13:46:07.814Z,15.57
2023-05-14T13:48:54.634Z,15.77
2023-05-14T13:51:41.441Z,14.57
2023-05-14T13:54:28.237Z,14.27
2023-05-14T13:57:15.444Z,15.32
2023-05-14T14:00:02.264Z,14.75
2023-05-14T14:02:50.947Z,14.55
2023-05-14T14:05:37.861Z,14.18
2023-05-14T14:08:24.855Z,14.45
2023-05-14T14:11:11.666Z,13.50
2023-05-14T14:13:58.477Z,14.63
2023-05-14T14:16:45.323Z,14.25
2023-05-14T14:19:32.122Z,14.13
2023-05-14T14:22:18.981Z,15.23
2023-05-14T14:25:06.233Z,15.88
2023-05-14T14:27:53.046Z,16.08
2023-05-14T14:30:39.880Z,15.85
2023-05-14T14:33:26.559Z,16.90
2023-05-14T14:36:13.370Z,16.63
2023-05-14T14:39:00.185Z,16.40
2023-05-14T14:41:46.991Z,15.20
2023-05-14T14:44:33.758Z,15.05
2023-05-14T14:47:20.539Z,16.83
2023-05-14T14:50:08.055Z,16.58
2023-05-14T14:52:54.854Z,16.20
2023-05-14T14:55:41.634Z,15.38
2023-05-14T14:58:28.639Z,17.42
2023-05-14T15:01:15.520Z,16.85
2023-05-14T15:04:02.471Z,16.35
2023-05-14T15:06:49.241Z,15.63
2023-05-14T15:09:36.130Z,17.40
2023-05-14T15:12:22.947Z,16.10
2023-05-14T15:15:10.062Z,16.83
2023-05-14T15:17:57.156Z,15.27
2023-05-14T15:20:44.481Z,14.15
2023-05-14T15:23:31.266Z,14.57
2023-05-14T15:26:18.101Z,13.90
2023-05-14T15:29:05.049Z,13.93
2023-05-14T15:31:51.887Z,16.05
2023-05-14T15:34:38.737Z,13.05
2023-05-14T15:37:26.177Z,14.23
2023-05-14T15:40:13.280Z,14.05
2023-05-14T15:43:00.150Z,12.90
2023-05-14T15:45:46.973Z,13.90
2023-05-14T15:48:33.815Z,13.45
2023-05-14T15:51:20.684Z,14.40
2023-05-14T15:54:07.665Z,13.93
2023-05-14T15:56:55.500Z,13.85
2023-05-14T15:59:42.358Z,13.85
2023-05-14T16:02:29.196Z,14.73
2023-05-14T16:05:16.038Z,13.30
2023-05-14T16:08:03.222Z,14.65
2023-05-14T16:10:50.022Z,14.18
2023-05-14T16:13:36.827Z,13.98
2023-05-14T16:16:23.657Z,13.50
2023-05-14T16:19:10.554Z,13.98
2023-05-14T16:21:57.463Z,15.18
2023-05-14T16:24:44.272Z,14.82
2023-05-14T16:27:31.194Z,13.13
2023-05-14T16:30:18.287Z,12.27
2023-05-14T16:33:05.177Z,12.85
2023-05-14T16:35:52.342Z,12.15
2023-05-14T16:38:48.183Z,12.65
2023-05-14T16:41:43.884Z,12.15
2023-05-14T16:44:30.643Z,12.00
2023-05-14T16:47:17.409Z,12.10
2023-05-14T16:50:04.382Z,12.38
2023-05-14T16:52:51.289Z,11.85
2023-05-14T16:55:38.096Z,10.98
2023-05-14T16:58:24.881Z,12.05
2023-05-14T17:01:11.715Z,12.57
2023-05-14T17:03:58.648Z,12.63
2023-05-14T17:06:46.444Z,11.82
2023-05-14T17:09:33.372Z,13.07
2023-05-14T17:12:20.409Z,11.77
2023-05-14T17:15:07.798Z,10.90
2023-05-14T17:17:55.627Z,9.65
2023-05-14T17:20:42.516Z,10.70
2023-05-14T17:23:29.333Z,11.55
2023-05-14T17:26:16.193Z,10.65
2023-05-14T17:29:03.278Z,11.98
2023-05-14T17:31:50.265Z,10.45
2023-05-14T17:34:37.170Z,11.05
2023-05-14T17:37:24.678Z,10.90
2023-05-14T17:40:12.748Z,10.40
2023-05-14T17:42:59.551Z,9.90
2023-05-14T17:45:53.804Z,9.43
2023-05-14T17:48:41.460Z,10.43
2023-05-14T17:51:28.326Z,10.35
2023-05-14T17:54:15.129Z,10.05
2023-05-14T17:57:01.999Z,9.25
2023-05-14T17:59:48.798Z,8.77
2023-05-14T18:02:35.609Z,7.00
2023-05-14T18:05:22.645Z,6.10
2023-05-14T18:08:09.650Z,5.95
2023-05-14T18:10:56.447Z,5.50
2023-05-14T18:13:43.237Z,5.75
2023-05-14T18:16:30.766Z,5.43
2023-05-14T18:19:17.614Z,5.22
2023-05-14T18:22:04.537Z,4.28
2023-05-14T18:24:51.359Z,4.40
2023-05-14T18:27:38.302Z,4.57
2023-05-14T18:30:25.095Z,4.53
2023-05-14T18:33:12.004Z,4.72
2023-05-14T18:35:58.978Z,4.20
2023-05-14T18:38:45.768Z,4.45
2023-05-14T18:41:32.584Z,4.85
2023-05-14T18:44:19.361Z,3.70
2023-05-14T18:47:06.480Z,3.88
2023-05-14T18:49:53.269Z,3.50
2023-05-14T18:52:40.076Z,4.10
2023-05-14T18:55:27.231Z,4.35
2023-05-14T18:58:14.178Z,4.65
2023-05-14T19:01:01.668Z,4.43
2023-05-14T19:03:48.508Z,4.30
2023-05-14T19:06:35.386Z,4.47
2023-05-14T19:09:22.279Z,4.00
2023-05-14T19:12:09.105Z,4.40
2023-05-14T19:14:55.958Z,4.40
2023-05-14T19:17:42.888Z,4.43
2023-05-14T19:20:29.682Z,4.35
2023-05-14T19:23:16.441Z,4.43
2023-05-14T19:26:03.325Z,6.20
2023-05-14T19:28:50.356Z,7.25
2023-05-14T19:31:37.182Z,7.03
2023-05-14T19:34:24.017Z,8.40
2023-05-14T19:37:10.911Z,6.88
2023-05-14T19:39:57.684Z,5.90
2023-05-14T19:42:44.470Z,6.07
2023-05-14T19:45:31.305Z,5.28
2023-05-14T19:48:18.097Z,5.47
2023-05-14T19:51:04.935Z,6.03
2023-05-14T19:53:51.768Z,5.57
2023-05-14T19:56:38.602Z,6.07
2023-05-14T19:59:25.461Z,6.32
2023-05-14T20:02:12.378Z,6.30
2023-05-14T20:04:59.189Z,5.78
2023-05-14T20:07:46.011Z,6.60
2023-05-14T20:10:32.871Z,6.32
2023-05-14T20:13:19.689Z,7.30
2023-05-14T20:16:06.551Z,6.68
2023-05-14T20:18:53.723Z,6.90
2023-05-14T20:21:40.612Z,6.95
2023-05-14T20:24:28.492Z,6.20
2023-05-14T20:27:15.316Z,6.85
2023-05-14T20:30:02.207Z,6.25
2023-05-14T20:32:49.025Z,7.15
2023-05-14T20:35:35.853Z,7.13
2023-05-14T20:38:22.822Z,7.15
2023-05-14T20:41:09.587Z,7.10
2023-05-14T20:43:56.369Z,7.40
2023-05-14T20:46:43.229Z,7.50
2023-05-14T20:49:30.123Z,7.63
2023-05-14T20:52:18.188Z,7.05
2023-05-14T20:55:05.572Z,7.18
2023-05-14T20:57:52.367Z,7.35
2023-05-14T21:00:39.154Z,7.70
2023-05-14T21:03:26.039Z,8.38
2023-05-14T21:06:12.980Z,7.53
2023-05-14T21:08:59.764Z,7.70
2023-05-14T21:11:46.803Z,7.80
2023-05-14T21:14:33.601Z,7.60
2023-05-14T21:17:20.497Z,7.90
2023-05-14T21:20:07.875Z,7.60
2023-05-14T21:22:54.711Z,7.60
2023-05-14T21:25:41.642Z,8.45
2023-05-14T21:28:28.489Z,7.72
2023-05-14T21:31:15.314Z,8.20
2023-05-14T21:34:02.105Z,8.23
2023-05-14T21:36:49.014Z,7.25
2023-05-14T21:39:35.819Z,8.05
2023-05-14T21:42:22.627Z,8.02
2023-05-14T21:45:09.849Z,8.40
2023-05-14T21:47:56.793Z,7.97
2023-05-14T21:50:43.709Z,8.00
2023-05-14T21:53:30.476Z,5.28
2023-05-14T21:56:17.267Z,4.53
2023-05-14T21:59:04.123Z,4.28
2023-05-14T22:02:06.094Z,4.10
2023-05-14T22:04:53.912Z,3.30
2023-05-14T22:07:40.792Z,2.30
2023-05-14T22:10:27.633Z,2.58
2023-05-14T22:13:14.402Z,2.50
2023-05-14T22:16:12.094Z,1.98
2023-05-14T22:19:00.065Z,1.90
2023-05-14T22:21:46.964Z,2.42
2023-05-14T22:24:33.749Z,2.10
2023-05-14T22:27:20.542Z,2.00
2023-05-14T22:30:08.013Z,2.13
2023-05-14T22:32:55.063Z,2.30
2023-05-14T22:35:41.987Z,2.13
2023-05-14T22:38:28.809Z,2.00
2023-05-14T22:41:15.610Z,2.10
2023-05-14T22:44:02.421Z,2.00
2023-05-14T22:46:49.774Z,1.50
2023-05-14T22:49:36.691Z,1.80
2023-05-14T22:52:23.474Z,1.50
2023-05-14T22:55:10.272Z,1.58
2023-05-14T22:57:57.121Z,2.03
2023-05-14T23:00:43.959Z,1.60
2023-05-14T23:03:30.813Z,1.85
2023-05-14T23:06:17.847Z,1.50
2023-05-14T23:09:04.710Z,1.73
2023-05-14T23:11:51.529Z,1.70
2023-05-14T23:14:38.330Z,1.77
2023-05-14T23:17:25.314Z,2.00
2023-05-14T23:20:12.313Z,1.92
2023-05-14T23:22:59.121Z,1.90
2023-05-14T23:25:45.933Z,1.95
2023-05-14T23:28:32.772Z,2.28
2023-05-14T23:31:19.614Z,1.98
2023-05-14T23:34:06.624Z,1.60
2023-05-14T23:36:53.712Z,1.80
2023-05-14T23:39:40.651Z,1.73
2023-05-14T23:42:27.457Z,1.88
2023-05-14T23:45:14.318Z,1.73
2023-05-14T23:48:01.738Z,1.98
2023-05-14T23:50:48.583Z,1.70
2023-05-14T23:53:35.458Z,1.75
2023-05-14T23:56:23.167Z,1.98
2023-05-14T23:59:10.131Z,2.15
